KINDAKUN POINT, BC current weather conditions

sailwx.info

Wind from 190 at 27 knots gusting 35

Air temperature 9.0° C
Dewpoint 6.0° C

Last reported at 2014-Dec-19 22:00 UTC.
Time now 2014-Dec-20 00:09 UTC

Location: N 53°19' W 132°46'.
View on Google Maps.

See reports from other nearby stations

  
Tides and Currents Weather Stations Pressure Air Temp Water Temp Dewpoint Dewpoint Depression Visibility Wind Speed Wind Dir Waves Ship Positions
date/time (UTC)wind fromknots sea level pressurealtimeterstation pressurevisibilityair tempwater tempwave heightnotes
2014-Dec-19 23:00 180 22 gusting 32 8.0
2014-Dec-19 22:00 190 27 gusting 35 9.0
2014-Dec-19 21:00 190 32 gusting 38 9.0
2014-Dec-19 20:00 190 29 gusting 37 9.0
2014-Dec-19 19:00 170 25 gusting 31 8.0
2014-Dec-19 18:00 170 20 gusting 30 9.0
2014-Dec-19 17:00 160 19 gusting 27 8.0
2014-Dec-19 16:00 160 18 gusting 25 9.0
2014-Dec-19 15:00 160 17 gusting 27 9.0
2014-Dec-19 14:00 160 18 gusting 25 9.0
2014-Dec-19 13:00 160 17 gusting 22 9.0
2014-Dec-19 12:00 170 20 gusting 29 9.0
2014-Dec-19 11:00 170 19 gusting 26 9.0
2014-Dec-19 10:00 170 14 gusting 19 9.0
2014-Dec-19 09:00 160 13 8.0
2014-Dec-19 08:00 170 14 gusting 19 9.0
2014-Dec-19 07:00 160 15 gusting 20 8.0
2014-Dec-19 06:00 160 12 8.0
2014-Dec-19 05:00 160 12 8.0
2014-Dec-19 04:00 160 11 8.0
2014-Dec-19 03:00 140 8 8.0
2014-Dec-19 02:00 130 7 7.0
2014-Dec-19 01:00 140 8 8.0
2014-Dec-19 00:00 160 8 7.0
2014-Dec-18 23:00 110 6 7.0
2014-Dec-18 22:00 100 2 7.0
2014-Dec-18 21:00 240 12 7.0
2014-Dec-18 20:00 150 25 gusting 33 9.0
2014-Dec-18 19:00 150 24 gusting 32 10.0
2014-Dec-18 18:00 140 20 gusting 31 9.0
2014-Dec-18 17:00 110 14 gusting 22 9.0
2014-Dec-18 16:00 130 17 gusting 25 9.0
2014-Dec-18 15:00 110 9 8.0
2014-Dec-18 14:00 130 13 gusting 18 9.0
2014-Dec-18 13:00 110 10 gusting 18 8.0
2014-Dec-18 12:00 140 18 gusting 26 8.0
2014-Dec-18 11:00 150 18 gusting 26 9.0
2014-Dec-18 10:00 150 17 gusting 27 9.0
2014-Dec-18 09:00 150 19 gusting 26 9.0
2014-Dec-18 08:00 160 18 gusting 23 8.0
2014-Dec-18 07:00 150 19 gusting 27 8.0
2014-Dec-18 06:00 190 9 7.0
2014-Dec-18 05:00 170 20 8.0
2014-Dec-18 04:00 160 16 gusting 23 8.0
2014-Dec-18 03:00 120 10 8.0
2014-Dec-18 02:00 130 8 8.0
2014-Dec-18 01:00 130 10 8.0
2014-Dec-18 00:00 160 14 8.0